Time;durP1;ratioP1;P1;durP2;ratioP2;P2;SDS_P1;SDS_P2;PMS_P1;PMS_P2;Temp;Humidity;BMP_temperature;BMP_pressure;BME280_temperature;BME280_humidity;BME280_pressure;Samples;Min_cycle;Max_cycle;Signal;HPM_P1;HPM_P2
2022/12/10 00:00:05;;;;;;;;;;;;;;;;;;;;;
2022/12/10 00:02:58;;;;;;;14.67;5.53;;;-0.60;96.60;;;;;;6244890;22;20015;-87
2022/12/10 00:05:28;;;;;;;13.37;5.50;;;-0.70;96.70;;;;;;6224335;22;20026;-88
2022/12/10 00:08:07;;;;;;;13.07;4.87;;;-0.70;96.70;;;;;;6249369;22;20445;-86
2022/12/10 00:10:38;;;;;;;11.40;4.47;;;-0.70;96.70;;;;;;6274397;22;20081;-85
2022/12/10 00:13:20;;;;;;;11.13;4.53;;;-0.70;96.80;;;;;;6248258;22;20016;-85
2022/12/10 00:16:00;;;;;;;15.93;5.87;;;-0.70;96.70;;;;;;6271811;22;20482;-85
2022/12/10 00:18:54;;;;;;;13.53;4.97;;;-0.70;96.80;;;;;;6224023;22;20386;-85
2022/12/10 00:21:36;;;;;;;17.83;6.77;;;-0.70;96.80;;;;;;6248721;22;20016;-85
2022/12/10 00:24:05;;;;;;;20.83;8.20;;;-0.70;96.70;;;;;;6248332;22;20020;-85
2022/12/10 00:26:38;;;;;;;23.53;9.83;;;-0.70;96.80;;;;;;6273467;22;20339;-85
2022/12/10 00:29:07;;;;;;;26.15;10.52;;;-0.70;96.70;;;;;;6273468;22;20020;-85
2022/12/10 00:31:37;;;;;;;23.13;9.70;;;-0.70;96.70;;;;;;6247736;22;20456;-85
2022/12/10 00:34:10;;;;;;;27.50;11.90;;;-0.70;96.60;;;;;;6292562;22;20014;-85
2022/12/10 00:36:48;;;;;;;29.07;10.70;;;-0.70;96.60;;;;;;6336679;22;20015;-85
2022/12/10 00:39:28;;;;;;;19.53;9.27;;;-0.70;96.60;;;;;;6337163;22;20398;-85
2022/12/10 00:41:58;;;;;;;16.03;8.23;;;-0.70;96.60;;;;;;6336724;22;20052;-85
2022/12/10 00:44:33;;;;;;;21.77;9.53;;;-0.70;96.60;;;;;;6336700;22;20023;-85
2022/12/10 00:47:09;;;;;;;23.30;9.47;;;-0.70;96.70;;;;;;6287180;22;20429;-85
2022/12/10 00:49:39;;;;;;;24.33;9.57;;;-0.80;96.70;;;;;;6311888;22;20498;-84
2022/12/10 00:52:10;;;;;;;20.93;8.33;;;-0.80;96.70;;;;;;6310862;22;20026;-86
2022/12/10 00:54:43;;;;;;;21.03;7.60;;;-0.80;96.70;;;;;;6311188;22;20015;-85
2022/12/10 00:57:27;;;;;;;20.17;7.80;;;-0.80;96.70;;;;;;6312217;22;20015;-85
2022/12/10 00:59:57;;;;;;;19.50;7.27;;;-0.80;96.70;;;;;;6310793;22;20023;-84
2022/12/10 01:02:28;;;;;;;17.63;6.87;;;-0.80;96.70;;;;;;6310978;22;20023;-85
2022/12/10 01:04:59;;;;;;;16.63;7.07;;;-0.90;96.70;;;;;;6310749;22;20045;-85
2022/12/10 01:07:29;;;;;;;18.13;6.67;;;-0.90;96.70;;;;;;6311162;22;20021;-85
2022/12/10 01:09:59;;;;;;;16.77;6.23;;;-0.90;96.80;;;;;;6311047;22;20073;-85
2022/12/10 01:12:31;;;;;;;17.63;7.20;;;-0.90;96.80;;;;;;6311955;22;20021;-85
2022/12/10 01:15:18;;;;;;;15.70;7.47;;;-0.90;96.80;;;;;;6316338;22;20019;-85
2022/12/10 01:17:48;;;;;;;17.50;6.53;;;-0.90;96.80;;;;;;6338531;22;20037;-84
2022/12/10 01:20:18;;;;;;;15.03;6.90;;;-0.90;96.80;;;;;;6312532;22;20022;-83
2022/12/10 01:22:49;;;;;;;16.87;8.43;;;-0.90;96.80;;;;;;6312653;22;20018;-83
2022/12/10 01:25:35;;;;;;;19.90;8.87;;;-0.90;96.80;;;;;;6313726;22;20046;-83
2022/12/10 01:28:08;;;;;;;19.33;7.25;;;-0.90;96.80;;;;;;6263541;22;20030;-83
2022/12/10 01:30:39;;;;;;;16.97;6.73;;;-1.00;96.80;;;;;;6312224;22;20022;-84
2022/12/10 01:33:08;;;;;;;15.48;6.35;;;-1.00;96.80;;;;;;6337937;22;20475;-84
2022/12/10 01:35:54;;;;;;;16.17;6.70;;;-1.00;96.80;;;;;;6286679;22;20019;-83
2022/12/10 01:38:27;;;;;;;13.53;5.50;;;-1.00;96.80;;;;;;6312412;22;20094;-83
2022/12/10 01:41:08;;;;;;;12.10;4.87;;;-1.00;96.80;;;;;;6312482;22;20509;-83
2022/12/10 01:44:28;;;;;;;12.37;4.93;;;-1.10;96.80;;;;;;6313851;22;20069;-83
2022/12/10 01:47:11;;;;;;;13.57;5.73;;;-1.10;96.80;;;;;;6312085;22;20098;-83
2022/12/10 01:49:49;;;;;;;12.63;4.73;;;-1.10;96.90;;;;;;6338227;22;20117;-83
2022/12/10 01:52:28;;;;;;;12.67;5.43;;;-1.10;96.90;;;;;;6309972;22;20019;-83
2022/12/10 01:54:55;;;;;;;13.43;5.37;;;-1.10;96.90;;;;;;6312342;22;20023;-83
2022/12/10 01:57:28;;;;;;;14.67;5.23;;;-1.20;96.90;;;;;;6288172;22;20022;-83
2022/12/10 02:00:07;;;;;;;13.73;5.10;;;-1.20;96.90;;;;;;6338361;22;20433;-83
2022/12/10 02:03:09;;;;;;;10.70;5.47;;;-1.20;96.90;;;;;;6340507;22;20456;-83
2022/12/10 02:05:42;;;;;;;11.00;4.60;;;-1.20;96.90;;;;;;6337691;22;20053;-83
2022/12/10 02:08:35;;;;;;;11.40;4.37;;;-1.30;96.90;;;;;;6314067;22;20349;-86
2022/12/10 02:11:25;;;;;;;11.40;4.20;;;-1.20;97.00;;;;;;6313250;22;20087;-86
2022/12/10 02:14:40;;;;;;;13.23;4.47;;;-1.20;97.00;;;;;;6338903;22;20050;-86
2022/12/10 02:17:43;;;;;;;9.70;3.73;;;-1.30;96.90;;;;;;6310241;22;20023;-86
2022/12/10 02:20:34;;;;;;;11.50;4.03;;;-1.20;96.90;;;;;;6313974;22;20386;-86
2022/12/10 02:23:30;;;;;;;15.40;5.47;;;-1.20;96.90;;;;;;6314513;22;20030;-86
2022/12/10 02:26:16;;;;;;;19.13;6.82;;;-1.20;96.90;;;;;;6313161;22;20027;-86
2022/12/10 02:29:11;;;;;;;15.77;5.77;;;-1.20;96.90;;;;;;6313516;22;20091;-86
2022/12/10 02:32:21;;;;;;;19.33;7.37;;;-1.20;96.80;;;;;;6315436;22;20053;-86
2022/12/10 02:35:29;;;;;;;16.47;5.83;;;-1.20;96.80;;;;;;6317638;22;20021;-86
2022/12/10 02:38:29;;;;;;;13.07;5.15;;;-1.20;96.80;;;;;;6314019;22;20018;-86
2022/12/10 02:41:08;;;;;;;12.33;4.70;;;-1.30;96.80;;;;;;6312179;22;20068;-86
2022/12/10 02:43:40;;;;;;;13.90;5.27;;;-1.30;96.90;;;;;;6312935;22;20022;-86
2022/12/10 02:46:17;;;;;;;12.50;5.13;;;-1.30;96.90;;;;;;6314249;22;20344;-86
2022/12/10 02:49:10;;;;;;;11.70;4.53;;;-1.30;96.90;;;;;;6337233;22;20014;-86
2022/12/10 02:51:58;;;;;;;10.43;4.10;;;-1.30;96.90;;;;;;6338787;22;20102;-87
2022/12/10 02:54:42;;;;;;;10.93;4.30;;;-1.30;96.90;;;;;;6312051;22;20023;-86
2022/12/10 02:58:03;;;;;;;;;;;;;;;;;;;;;
2022/12/10 03:01:02;;;;;;;16.00;6.17;;;-1.40;96.90;;;;;;6338347;22;20019;-86
2022/12/10 03:03:55;;;;;;;12.97;4.57;;;-1.40;96.90;;;;;;6338004;22;20025;-85
2022/12/10 03:06:36;;;;;;;10.83;3.87;;;-1.40;96.90;;;;;;6313046;22;20064;-86
2022/12/10 03:09:20;;;;;;;13.17;4.93;;;-1.40;97.20;;;;;;6312543;22;20022;-86
2022/12/10 03:12:08;;;;;;;12.90;4.90;;;-1.40;96.90;;;;;;6313111;22;20015;-86
2022/12/10 03:14:47;;;;;;;9.80;4.07;;;-1.50;96.90;;;;;;6312414;22;20023;-85
2022/12/10 03:17:31;;;;;;;16.13;5.57;;;-1.50;96.90;;;;;;6312030;22;20433;-86
2022/12/10 03:20:39;;;;;;;11.67;4.87;;;-1.40;97.00;;;;;;6331632;22;20094;-86
2022/12/10 03:23:47;;;;;;;9.40;3.53;;;-1.50;96.90;;;;;;6338784;22;20052;-86
2022/12/10 03:26:29;;;;;;;14.63;5.20;;;-1.50;96.90;;;;;;6314555;22;20027;-86
2022/12/10 03:29:09;;;;;;;14.88;6.00;;;-1.50;97.00;;;;;;6312998;22;20025;-86
2022/12/10 03:31:49;;;;;;;13.00;5.97;;;-1.50;97.00;;;;;;6313871;22;20456;-87
2022/12/10 03:34:50;;;;;;;15.67;6.07;;;-1.40;97.00;;;;;;6290145;22;20050;-86
2022/12/10 03:37:50;;;;;;;15.73;5.55;;;-1.50;96.90;;;;;;6292718;22;20100;-87
2022/12/10 03:40:27;;;;;;;11.50;4.30;;;-1.50;96.90;;;;;;6312867;22;20067;-86
2022/12/10 03:43:00;;;;;;;10.77;4.20;;;-1.50;96.90;;;;;;6312543;22;20068;-86
2022/12/10 03:45:39;;;;;;;13.20;4.67;;;-1.50;96.90;;;;;;6313813;22;20023;-86
2022/12/10 03:48:41;;;;;;;11.83;4.40;;;-1.50;96.90;;;;;;6337880;22;20089;-86
2022/12/10 03:51:23;;;;;;;11.70;4.27;;;-1.50;97.00;;;;;;6313316;22;20437;-85
2022/12/10 03:53:59;;;;;;;10.88;3.97;;;-1.60;97.00;;;;;;6313694;22;20026;-87
2022/12/10 03:56:29;;;;;;;11.80;4.10;;;-1.60;97.00;;;;;;6312634;22;20052;-87
2022/12/10 03:58:56;;;;;;;11.10;4.50;;;-1.60;97.00;;;;;;6312706;22;20015;-87
2022/12/10 04:01:28;;;;;;;11.60;4.87;;;-1.60;97.00;;;;;;6313055;22;20034;-88
2022/12/10 04:03:55;;;;;;;14.00;5.97;;;-1.60;97.00;;;;;;6312624;22;20030;-87
2022/12/10 04:06:27;;;;;;;13.17;5.00;;;-1.50;97.00;;;;;;6312593;22;20472;-88
2022/12/10 04:08:55;;;;;;;13.32;5.13;;;-1.60;97.00;;;;;;6312071;22;20046;-88
2022/12/10 04:11:30;;;;;;;10.57;4.63;;;-1.60;97.00;;;;;;6313191;22;20041;-88
2022/12/10 04:16:51;;;;;;;10.83;4.80;;;-1.60;97.00;;;;;;6338474;22;19968;-88
2022/12/10 04:19:21;;;;;;;10.63;3.90;;;-1.60;97.00;;;;;;6289723;22;20046;-88
2022/12/10 04:27:35;;;;;;;19.17;7.97;;;-1.50;97.00;;;;;;6338303;22;20022;-88
2022/12/10 04:30:06;;;;;;;22.37;7.70;;;-1.40;97.00;;;;;;6310950;22;20029;-81
2022/12/10 04:32:36;;;;;;;24.00;10.17;;;-1.30;96.90;;;;;;6310180;22;20026;-81
2022/12/10 04:35:04;;;;;;;32.97;13.27;;;-1.20;96.90;;;;;;6310908;22;20132;-81
2022/12/10 04:37:40;;;;;;;44.43;16.17;;;-1.10;96.80;;;;;;6336866;22;20019;-81
2022/12/10 04:40:08;;;;;;;53.70;20.30;;;-1.10;96.70;;;;;;6336253;22;20023;-81
2022/12/10 04:42:38;;;;;;;51.00;21.10;;;-1.00;96.60;;;;;;6336426;22;20027;-81
2022/12/10 04:45:08;;;;;;;45.53;17.57;;;-1.00;96.50;;;;;;6336827;22;20513;-81
2022/12/10 04:47:35;;;;;;;36.60;14.83;;;-0.90;96.50;;;;;;6285334;22;20046;-81
2022/12/10 04:50:09;;;;;;;35.63;14.93;;;-0.90;96.50;;;;;;6338338;22;20018;-81
2022/12/10 04:52:36;;;;;;;38.40;15.73;;;-0.90;96.50;;;;;;6337858;22;20079;-81
2022/12/10 04:55:06;;;;;;;38.50;15.77;;;-0.90;96.50;;;;;;6312782;22;20018;-81
2022/12/10 04:57:41;;;;;;;41.23;17.53;;;-0.90;96.40;;;;;;6312232;22;20330;-81
2022/12/10 05:00:10;;;;;;;38.83;16.37;;;-0.90;96.50;;;;;;6338252;22;20030;-81
2022/12/10 05:02:39;;;;;;;37.97;14.73;;;-0.80;96.50;;;;;;6312627;22;20055;-81
2022/12/10 05:05:07;;;;;;;36.13;13.60;;;-0.80;96.50;;;;;;6312301;22;20030;-81
2022/12/10 05:07:39;;;;;;;37.13;15.50;;;-0.80;96.40;;;;;;6338658;22;20023;-81
2022/12/10 05:10:06;;;;;;;46.03;18.20;;;-0.80;96.40;;;;;;6338183;22;20023;-80
2022/12/10 05:12:36;;;;;;;39.53;16.93;;;-0.90;96.40;;;;;;6338335;22;20014;-82
2022/12/10 05:15:06;;;;;;;40.73;15.23;;;-0.80;96.70;;;;;;6261517;22;20019;-82
2022/12/10 05:17:33;;;;;;;36.27;15.40;;;-0.80;96.40;;;;;;6312915;22;20011;-81
2022/12/10 05:20:05;;;;;;;37.17;14.63;;;-0.80;96.40;;;;;;6313040;22;20093;-82
2022/12/10 05:25:24;;;;;;;44.63;17.30;;;-0.80;96.40;;;;;;6337688;22;20046;-81
2022/12/10 05:27:56;;;;;;;42.93;16.23;;;-0.80;96.30;;;;;;6338221;22;20068;-81
2022/12/10 05:30:29;;;;;;;42.97;16.80;;;-0.80;96.30;;;;;;6338298;22;20050;-82
2022/12/10 05:32:56;;;;;;;44.17;17.80;;;-0.80;96.30;;;;;;6287385;22;20023;-83
2022/12/10 05:35:27;;;;;;;53.23;19.13;;;-0.80;96.30;;;;;;6287112;22;20352;-82
2022/12/10 05:38:01;;;;;;;42.27;18.03;;;-0.80;96.30;;;;;;6338178;22;20395;-82
2022/12/10 05:40:29;;;;;;;42.63;16.50;;;-0.80;96.40;;;;;;6338113;22;20090;-82
2022/12/10 05:42:58;;;;;;;42.43;15.83;;;-0.80;96.40;;;;;;6286676;22;20368;-82
2022/12/10 05:45:27;;;;;;;36.27;15.17;;;-0.80;96.30;;;;;;6338103;22;20018;-84
2022/12/10 05:48:00;;;;;;;39.03;13.30;;;-0.80;96.30;;;;;;6338320;22;20045;-83
2022/12/10 05:50:27;;;;;;;;;;;-0.80;96.40;;;;;;6312867;22;20445;-83
2022/12/10 05:52:54;;;;;;;56.40;20.67;;;-0.80;96.40;;;;;;6337591;22;19915;-83
2022/12/10 05:55:34;;;;;;;;;;;;;;;;;;;;;
2022/12/10 05:58:08;;;;;;;56.20;18.97;;;-0.90;96.30;;;;;;6339382;22;20446;-88
2022/12/10 06:00:39;;;;;;;57.07;19.87;;;-0.90;96.30;;;;;;6338441;22;20026;-88
2022/12/10 06:03:10;;;;;;;64.83;23.37;;;-0.90;96.30;;;;;;6338759;22;20022;-88
2022/12/10 06:05:40;;;;;;;61.87;22.10;;;-0.90;96.40;;;;;;6312731;22;20018;-87
2022/12/10 06:08:08;;;;;;;74.77;25.73;;;-0.90;96.40;;;;;;6338729;22;20030;-88
2022/12/10 06:10:38;;;;;;;63.27;24.03;;;-1.00;96.40;;;;;;6339124;22;20022;-88
2022/12/10 06:13:05;;;;;;;60.87;22.90;;;-1.00;96.40;;;;;;6313274;22;20038;-88
2022/12/10 06:15:35;;;;;;;52.87;18.07;;;-1.00;96.50;;;;;;6339101;22;20018;-88
2022/12/10 06:18:03;;;;;;;45.53;19.10;;;-1.00;96.50;;;;;;6339351;22;20410;-88
2022/12/10 06:20:39;;;;;;;51.17;18.93;;;-1.00;96.50;;;;;;6338969;22;20022;-88
2022/12/10 06:23:14;;;;;;;56.67;21.07;;;-1.00;96.50;;;;;;6291087;22;20018;-87
2022/12/10 06:25:52;;;;;;;54.13;20.77;;;-1.00;96.40;;;;;;6338727;22;20022;-87
2022/12/10 06:28:21;;;;;;;65.40;23.17;;;-1.00;96.40;;;;;;6338854;22;20022;-88
2022/12/10 06:30:48;;;;;;;61.70;21.67;;;-1.00;96.50;;;;;;6313317;22;20519;-88
2022/12/10 06:33:18;;;;;;;65.80;23.70;;;-1.10;96.40;;;;;;6287166;22;20022;-87
2022/12/10 06:35:48;;;;;;;61.33;22.50;;;-1.10;96.50;;;;;;6338704;22;20014;-88
2022/12/10 06:38:18;;;;;;;69.30;25.90;;;-1.20;96.50;;;;;;6312832;22;20106;-88
2022/12/10 06:40:48;;;;;;;58.50;23.57;;;-1.20;96.50;;;;;;6339049;22;20041;-88
2022/12/10 06:43:15;;;;;;;56.00;21.13;;;-1.20;96.60;;;;;;6312757;22;20019;-87
2022/12/10 06:45:43;;;;;;;61.53;22.67;;;-1.20;96.60;;;;;;6287181;22;20018;-88
2022/12/10 06:48:22;;;;;;;66.40;24.50;;;-1.20;96.60;;;;;;6338686;22;20018;-89
2022/12/10 06:50:57;;;;;;;68.40;25.00;;;-1.30;96.90;;;;;;6338427;22;20027;-88
2022/12/10 06:53:27;;;;;;;;;;;-1.30;96.60;;;;;;6288787;22;20060;-87
2022/12/10 06:55:58;;;;;;;55.27;18.90;;;-1.30;96.70;;;;;;6312362;22;19946;-88
2022/12/10 06:58:31;;;;;;;49.53;17.57;;;-1.20;96.70;;;;;;6338610;22;20014;-88
2022/12/10 07:01:29;;;;;;;;;;;;;;;;;;;;;
2022/12/10 07:03:59;;;;;;;42.50;16.80;;;-1.20;96.60;;;;;;6316116;22;20109;-88
2022/12/10 07:06:30;;;;;;;54.27;20.33;;;-1.20;96.60;;;;;;6338428;22;20204;-88
2022/12/10 07:09:00;;;;;;;61.27;21.53;;;-1.20;96.50;;;;;;6312872;22;20026;-88
2022/12/10 07:11:30;;;;;;;55.20;20.63;;;-1.20;96.50;;;;;;6338153;22;20048;-87
2022/12/10 07:13:58;;;;;;;53.57;19.37;;;-1.30;96.60;;;;;;6338026;22;20033;-87
2022/12/10 07:16:28;;;;;;;59.97;21.57;;;-1.30;96.60;;;;;;6337992;22;20042;-87
2022/12/10 07:18:57;;;;;;;63.93;22.73;;;-1.30;96.70;;;;;;6312821;22;20030;-88
2022/12/10 07:21:32;;;;;;;63.57;22.23;;;-1.30;96.70;;;;;;6338142;22;20015;-88
2022/12/10 07:24:30;;;;;;;60.57;21.90;;;-1.30;96.70;;;;;;6283944;22;20015;-88
2022/12/10 07:27:00;;;;;;;60.83;20.90;;;-1.30;96.70;;;;;;6287299;22;20023;-87
2022/12/10 07:29:28;;;;;;;63.17;22.77;;;-1.30;96.70;;;;;;6286754;22;20110;-88
2022/12/10 07:31:59;;;;;;;65.67;24.03;;;-1.30;96.70;;;;;;6337843;22;20064;-87
2022/12/10 07:35:11;;;;;;;59.00;20.53;;;-1.30;96.70;;;;;;6312278;22;20027;-88
2022/12/10 07:38:30;;;;;;;57.73;19.47;;;-1.30;96.70;;;;;;6179303;23;20032;-88
2022/12/10 07:41:39;;;;;;;61.30;20.90;;;-1.30;96.70;;;;;;6169349;23;20103;-85
2022/12/10 07:44:24;;;;;;;;;;;;;;;;;;;;;
2022/12/10 07:47:05;;;;;;;;;;;;;;;;;;;;;
2022/12/10 07:49:34;;;;;;;63.83;22.53;;;-1.30;96.70;;;;;;6304717;22;20122;-84
2022/12/10 07:52:07;;;;;;;63.73;22.00;;;-1.30;96.70;;;;;;6254092;22;20019;-84
2022/12/10 07:54:37;;;;;;;70.80;23.63;;;-1.30;96.80;;;;;;6254672;22;20583;-87
2022/12/10 07:57:07;;;;;;;60.70;21.27;;;-1.30;96.70;;;;;;6229651;22;20250;-90
2022/12/10 08:00:29;;;;;;;;;;;;;;;;;;;;;
2022/12/10 08:03:08;;;;;;;61.50;21.97;;;-1.30;96.70;;;;;;6326605;22;20011;-88
2022/12/10 08:05:38;;;;;;;60.27;19.37;;;-1.30;96.80;;;;;;6286277;22;20018;-88
2022/12/10 08:08:08;;;;;;;53.17;17.87;;;-1.30;96.80;;;;;;6311890;22;20018;-88
2022/12/10 08:10:37;;;;;;;51.57;17.97;;;-1.20;96.80;;;;;;6337737;22;20123;-88
2022/12/10 08:13:07;;;;;;;50.50;19.03;;;-1.10;96.80;;;;;;6337792;22;20019;-92
2022/12/10 08:15:44;;;;;;;;;;;;;;;;;;;;;
2022/12/10 08:18:25;;;;;;;54.27;16.40;;;-1.10;96.70;;;;;;6338247;22;20064;-88
2022/12/10 08:21:09;;;;;;;51.17;15.67;;;-1.00;96.70;;;;;;6337019;22;20023;-84
2022/12/10 08:23:39;;;;;;;44.67;15.80;;;-1.00;96.60;;;;;;6338895;22;20041;-84
2022/12/10 08:26:11;;;;;;;50.17;18.00;;;-1.00;96.70;;;;;;6339176;22;20394;-85
2022/12/10 08:28:38;;;;;;;43.97;15.43;;;-0.90;96.60;;;;;;6339434;22;20027;-85
2022/12/10 08:31:09;;;;;;;54.50;17.93;;;-0.90;96.60;;;;;;6339470;22;20070;-91
2022/12/10 08:33:40;;;;;;;55.53;17.00;;;-0.80;96.60;;;;;;6340582;22;20042;-91
2022/12/10 08:36:09;;;;;;;40.27;13.30;;;-0.80;96.60;;;;;;6340684;22;20046;-90
2022/12/10 08:38:40;;;;;;;34.40;12.40;;;-0.80;96.60;;;;;;6314489;22;20024;-89
2022/12/10 08:41:11;;;;;;;41.23;13.83;;;-0.80;96.60;;;;;;6340125;22;20021;-88
2022/12/10 08:43:39;;;;;;;38.57;12.13;;;-0.70;96.60;;;;;;6340078;22;20022;-90
2022/12/10 08:46:09;;;;;;;38.57;12.37;;;-0.70;96.60;;;;;;6313674;22;20019;-90
2022/12/10 08:48:42;;;;;;;52.03;17.70;;;-0.70;96.50;;;;;;6340416;22;20019;-90
2022/12/10 08:51:29;;;;;;;45.30;14.83;;;-0.70;96.50;;;;;;6317660;22;20056;-89
2022/12/10 08:53:59;;;;;;;39.47;13.00;;;-0.70;96.60;;;;;;6314403;22;20015;-89
2022/12/10 08:56:30;;;;;;;36.17;13.07;;;-0.70;96.60;;;;;;6314069;22;20014;-89
2022/12/10 08:59:00;;;;;;;41.70;13.83;;;-0.60;96.60;;;;;;6339893;22;20344;-90
2022/12/10 09:01:30;;;;;;;45.20;14.70;;;-0.60;96.60;;;;;;6340215;22;20026;-90
2022/12/10 09:04:00;;;;;;;42.43;14.17;;;-0.60;96.60;;;;;;6339510;22;20030;-90
2022/12/10 09:06:28;;;;;;;37.50;13.90;;;-0.60;96.60;;;;;;6314222;22;20511;-90
2022/12/10 09:09:10;;;;;;;47.20;15.13;;;-0.60;96.60;;;;;;6340230;22;20449;-89
2022/12/10 09:11:40;;;;;;;45.05;15.82;;;-0.60;96.50;;;;;;6340190;22;20027;-90
2022/12/10 09:14:07;;;;;;;44.27;14.57;;;-0.70;96.50;;;;;;6340278;22;20041;-90
2022/12/10 09:16:38;;;;;;;38.13;12.60;;;-0.70;96.60;;;;;;6339788;22;20022;-90
2022/12/10 09:19:08;;;;;;;45.80;14.00;;;-0.60;96.90;;;;;;6313913;22;20014;-89
2022/12/10 09:21:36;;;;;;;42.13;13.70;;;-0.60;96.70;;;;;;6339519;22;20015;-88
2022/12/10 09:24:06;;;;;;;44.10;14.20;;;-0.60;96.60;;;;;;6339728;22;20027;-90
2022/12/10 09:26:51;;;;;;;38.30;12.33;;;-0.50;96.60;;;;;;6288816;22;20027;-85
2022/12/10 09:29:30;;;;;;;34.77;11.73;;;-0.50;96.60;;;;;;6338442;22;20023;-88
2022/12/10 09:32:02;;;;;;;39.77;13.87;;;-0.50;96.60;;;;;;6314332;22;20049;-88
2022/12/10 09:35:06;;;;;;;39.43;10.43;;;-0.40;96.60;;;;;;6289998;22;20090;-88
2022/12/10 09:37:39;;;;;;;41.73;14.47;;;-0.40;96.60;;;;;;6314381;22;20089;-89
2022/12/10 09:40:09;;;;;;;33.23;11.30;;;-0.40;96.50;;;;;;6339430;22;20355;-88
2022/12/10 09:43:19;;;;;;;37.40;12.43;;;-0.30;96.60;;;;;;6313621;22;20046;-88
2022/12/10 09:46:07;;;;;;;44.13;13.60;;;-0.30;96.50;;;;;;6252433;22;20015;-90
2022/12/10 09:48:59;;;;;;;35.70;13.20;;;-0.30;96.50;;;;;;6313734;22;20019;-90
2022/12/10 09:51:29;;;;;;;38.33;13.57;;;-0.30;96.50;;;;;;6341706;22;20044;-89
2022/12/10 09:53:59;;;;;;;37.47;13.30;;;-0.30;96.50;;;;;;6313846;22;20015;-89
2022/12/10 09:56:39;;;;;;;42.17;14.57;;;-0.30;96.50;;;;;;6339268;22;20101;-88
2022/12/10 09:59:24;;;;;;;43.40;12.83;;;-0.30;96.50;;;;;;6325521;22;20040;-87
2022/12/10 10:02:21;;;;;;;38.40;11.70;;;-0.20;96.50;;;;;;6354843;22;20019;-88
2022/12/10 10:05:09;;;;;;;47.03;16.10;;;-0.20;96.50;;;;;;6319275;22;20102;-90
2022/12/10 10:07:52;;;;;;;39.17;12.97;;;-0.20;96.50;;;;;;6314907;22;20403;-82
2022/12/10 10:11:08;;;;;;;34.67;11.77;;;-0.10;96.50;;;;;;6324623;22;20018;-85
2022/12/10 10:14:43;;;;;;;;;;;;;;;;;;;;;
2022/12/10 10:18:07;;;;;;;50.33;17.93;;;0.00;96.50;;;;;;6297206;22;20053;-86
2022/12/10 10:20:57;;;;;;;57.13;17.90;;;-0.10;96.40;;;;;;6313153;22;20039;-86
2022/12/10 10:23:50;;;;;;;57.53;15.93;;;-0.10;96.40;;;;;;6312069;22;20014;-86
2022/12/10 10:27:10;;;;;;;63.90;18.53;;;-0.10;96.50;;;;;;6309098;22;20101;-87
2022/12/10 10:30:03;;;;;;;53.03;17.43;;;-0.10;96.40;;;;;;6313578;22;20086;-87
2022/12/10 10:32:57;;;;;;;48.85;16.80;;;-0.10;96.50;;;;;;6296531;22;20042;-90
2022/12/10 10:35:33;;;;;;;46.10;14.20;;;-0.10;96.50;;;;;;6313901;22;20019;-88
2022/12/10 10:38:22;;;;;;;53.57;16.63;;;0.00;96.50;;;;;;6339322;22;20019;-88
2022/12/10 10:41:00;;;;;;;37.73;12.57;;;0.10;96.50;;;;;;6338556;22;20026;-88
2022/12/10 10:43:44;;;;;;;38.43;12.70;;;0.10;96.50;;;;;;6338733;22;20045;-89
2022/12/10 10:46:23;;;;;;;40.93;13.07;;;0.10;96.40;;;;;;6313911;22;20046;-89
2022/12/10 10:49:21;;;;;;;35.30;10.03;;;0.10;96.40;;;;;;6337907;22;20057;-89
2022/12/10 10:52:19;;;;;;;35.43;10.10;;;0.20;96.50;;;;;;6313747;22;20019;-89
2022/12/10 10:55:02;;;;;;;40.37;12.43;;;0.20;96.40;;;;;;6287495;22;20014;-90
2022/12/10 10:58:00;;;;;;;37.30;12.50;;;0.30;96.40;;;;;;6338993;22;20022;-91
2022/12/10 11:00:38;;;;;;;40.03;12.70;;;0.30;96.40;;;;;;6315329;22;20512;-82
2022/12/10 11:03:19;;;;;;;54.90;15.73;;;0.20;96.40;;;;;;6285657;22;20046;-83
2022/12/10 11:06:01;;;;;;;50.20;15.37;;;0.20;96.40;;;;;;6291468;22;20015;-86
2022/12/10 11:16:39;;;;;;;39.70;12.87;;;0.20;96.50;;;;;;6219191;22;20062;-86
2022/12/10 11:20:04;;;;;;;;;;;;;;;;;;;;;
2022/12/10 11:23:13;;;;;;;35.47;10.98;;;0.30;96.50;;;;;;6274509;22;20024;-88
2022/12/10 11:25:56;;;;;;;31.43;10.80;;;0.40;96.40;;;;;;6226058;22;20019;-89
2022/12/10 11:29:22;;;;;;;35.63;12.37;;;0.40;96.40;;;;;;6255948;22;20102;-87
2022/12/10 11:32:23;;;;;;;33.83;11.73;;;0.50;96.40;;;;;;6248822;22;20254;-86
2022/12/10 11:35:29;;;;;;;29.87;11.40;;;0.50;96.30;;;;;;6249408;22;20011;-85
2022/12/10 11:38:51;;;;;;;34.70;11.18;;;0.50;96.30;;;;;;6251543;22;20016;-89
2022/12/10 11:42:09;;;;;;;35.03;11.50;;;0.40;96.30;;;;;;6257704;22;20023;-92
2022/12/10 11:44:58;;;;;;;39.67;11.97;;;0.50;96.40;;;;;;6313593;22;20105;-92
2022/12/10 11:47:43;;;;;;;39.67;12.33;;;0.50;96.30;;;;;;6339305;22;20020;-92
2022/12/10 11:50:20;;;;;;;41.83;13.77;;;0.50;96.30;;;;;;6339209;22;20523;-91
2022/12/10 11:53:12;;;;;;;33.37;12.47;;;0.50;96.30;;;;;;6339099;22;20045;-90
2022/12/10 11:55:54;;;;;;;37.13;11.93;;;0.50;96.30;;;;;;6338339;22;20018;-89
2022/12/10 11:58:39;;;;;;;39.93;13.10;;;0.50;96.30;;;;;;6337638;22;20069;-90
2022/12/10 12:01:18;;;;;;;33.90;10.40;;;0.60;96.30;;;;;;6313023;22;20065;-91
2022/12/10 12:04:20;;;;;;;32.87;10.90;;;0.50;96.30;;;;;;6339912;22;20014;-90
2022/12/10 12:07:00;;;;;;;34.93;10.50;;;0.60;96.40;;;;;;6272942;22;20019;-85
2022/12/10 12:10:05;;;;;;;33.20;11.47;;;0.60;96.30;;;;;;6338270;22;20087;-88
2022/12/10 12:12:50;;;;;;;33.67;13.37;;;0.60;96.30;;;;;;6311870;22;20038;-85
2022/12/10 12:15:37;;;;;;;33.70;10.80;;;0.50;96.30;;;;;;6337217;22;20026;-84
2022/12/10 12:18:27;;;;;;;30.63;9.40;;;0.60;96.40;;;;;;6337155;22;20060;-86
2022/12/10 12:21:02;;;;;;;36.13;10.90;;;0.60;96.40;;;;;;6311768;22;20437;-87
2022/12/10 12:23:59;;;;;;;31.23;10.37;;;0.60;96.40;;;;;;6338208;22;20396;-85
2022/12/10 12:26:41;;;;;;;42.50;12.30;;;0.60;96.40;;;;;;6336998;22;20019;-85
2022/12/10 12:29:29;;;;;;;40.17;12.80;;;0.60;96.40;;;;;;6311434;22;20017;-88
2022/12/10 12:32:31;;;;;;;52.57;15.87;;;0.60;96.40;;;;;;6197585;23;20500;-84
2022/12/10 12:35:51;;;;;;;49.30;16.97;;;0.50;96.40;;;;;;6192711;23;20012;-84
2022/12/10 12:38:53;;;;;;;56.13;16.53;;;0.40;96.30;;;;;;6183299;23;20044;-83
2022/12/10 12:42:13;;;;;;;54.13;18.03;;;0.40;96.50;;;;;;6222018;23;20107;-85
2022/12/10 12:45:36;;;;;;;53.47;17.33;;;0.40;96.50;;;;;;6216212;23;20139;-84
2022/12/10 12:48:11;;;;;;;58.77;17.47;;;0.40;96.50;;;;;;6336250;22;20476;-83
2022/12/10 12:50:55;;;;;;;62.07;19.77;;;0.30;96.50;;;;;;6336734;22;20025;-85
2022/12/10 12:53:32;;;;;;;48.77;15.90;;;0.30;96.50;;;;;;6311585;22;20068;-86
2022/12/10 12:56:32;;;;;;;42.87;14.67;;;0.30;96.50;;;;;;6336889;22;20089;-85
2022/12/10 13:03:03;;;;;;;38.77;10.93;;;0.50;96.60;;;;;;6328067;22;20451;-85
2022/12/10 13:05:47;;;;;;;48.83;15.20;;;0.50;96.50;;;;;;6311944;22;20459;-93
2022/12/10 13:08:27;;;;;;;53.15;15.90;;;0.50;96.50;;;;;;6337325;22;20344;-86
2022/12/10 13:10:58;;;;;;;41.35;14.43;;;0.50;96.40;;;;;;6339647;22;20018;-87
2022/12/10 13:13:31;;;;;;;49.13;14.77;;;0.40;96.40;;;;;;6313304;22;20472;-85
2022/12/10 13:16:36;;;;;;;37.90;12.30;;;0.40;96.60;;;;;;6312622;22;20015;-86
2022/12/10 13:19:33;;;;;;;43.10;14.73;;;0.50;96.60;;;;;;6338866;22;20093;-83
2022/12/10 13:22:32;;;;;;;37.43;13.23;;;0.50;96.50;;;;;;6289991;22;20072;-91
2022/12/10 13:25:17;;;;;;;52.70;16.50;;;0.40;96.50;;;;;;6339819;22;20022;-90
2022/12/10 13:31:10;;;;;;;52.50;16.83;;;0.40;96.60;;;;;;6340744;22;20019;-88
2022/12/10 13:33:53;;;;;;;49.50;18.37;;;0.40;96.60;;;;;;6339423;22;20015;-96
2022/12/10 13:36:36;;;;;;;48.80;14.93;;;0.40;96.90;;;;;;6340982;22;20091;-85
2022/12/10 13:39:05;;;;;;;49.20;16.07;;;0.40;96.60;;;;;;6339004;22;20011;-84
2022/12/10 13:44:47;;;;;;;;;;;0.30;96.60;;;;;;6340356;22;20053;-87
2022/12/10 13:47:43;;;;;;;35.80;11.80;;;0.30;96.70;;;;;;6314814;22;19914;-96
2022/12/10 13:50:53;;;;;;;29.38;8.85;;;0.30;96.70;;;;;;6322647;22;20022;-90
2022/12/10 13:58:20;;;;;;;29.00;10.97;;;0.40;96.70;;;;;;6301163;22;20064;-93
2022/12/10 14:01:50;;;;;;;26.55;9.40;;;0.40;96.60;;;;;;6323636;22;20017;-91
2022/12/10 14:04:42;;;;;;;29.47;8.50;;;0.40;96.60;;;;;;6336333;22;20019;-95
2022/12/10 14:07:22;;;;;;;28.07;9.50;;;0.40;96.70;;;;;;6344265;22;20014;-90
2022/12/10 14:10:29;;;;;;;29.10;10.00;;;0.40;96.70;;;;;;6315516;22;20323;-90
2022/12/10 14:13:01;;;;;;;28.70;9.83;;;0.40;96.70;;;;;;6340920;22;20019;-91
2022/12/10 14:15:29;;;;;;;22.03;8.53;;;0.40;96.70;;;;;;6317914;22;20018;-92
2022/12/10 14:18:30;;;;;;;27.53;9.23;;;0.40;96.70;;;;;;6289724;22;20015;-93
2022/12/10 14:24:43;;;;;;;21.33;6.63;;;0.50;96.70;;;;;;6334564;22;20444;-91
2022/12/10 14:27:31;;;;;;;24.63;7.30;;;0.50;96.70;;;;;;6308801;22;20018;-90
2022/12/10 14:30:02;;;;;;;;;;;0.50;96.70;;;;;;6314258;22;20105;-92
2022/12/10 14:32:41;;;;;;;33.90;12.53;;;0.50;96.70;;;;;;6314077;22;19925;-84
2022/12/10 14:35:20;;;;;;;34.23;10.53;;;0.50;96.70;;;;;;6312212;22;20014;-85